sensor_id;sensor_type;location;lat;lon;timestamp;temperature;humidity
13245;DHT22;6689;53.400;12.486;2023-10-13T00:00:40;11.80;1.00
13245;DHT22;6689;53.400;12.486;2023-10-13T00:03:09;11.90;1.00
13245;DHT22;6689;53.400;12.486;2023-10-13T00:05:41;11.90;1.00
13245;DHT22;6689;53.400;12.486;2023-10-13T00:08:10;11.90;1.00
13245;DHT22;6689;53.400;12.486;2023-10-13T00:10:38;12.00;1.00
13245;DHT22;6689;53.400;12.486;2023-10-13T00:13:06;12.00;1.00
13245;DHT22;6689;53.400;12.486;2023-10-13T00:15:39;11.90;1.00
13245;DHT22;6689;53.400;12.486;2023-10-13T00:18:13;12.00;1.00
13245;DHT22;6689;53.400;12.486;2023-10-13T00:20:42;12.00;1.00
13245;DHT22;6689;53.400;12.486;2023-10-13T00:23:15;12.00;1.00
13245;DHT22;6689;53.400;12.486;2023-10-13T00:25:47;12.00;1.00
13245;DHT22;6689;53.400;12.486;2023-10-13T00:28:23;12.10;1.00
13245;DHT22;6689;53.400;12.486;2023-10-13T00:30:54;12.00;1.00
13245;DHT22;6689;53.400;12.486;2023-10-13T00:33:32;12.10;1.00
13245;DHT22;6689;53.400;12.486;2023-10-13T00:36:03;12.10;1.00
13245;DHT22;6689;53.400;12.486;2023-10-13T00:38:31;12.10;1.00
13245;DHT22;6689;53.400;12.486;2023-10-13T00:40:59;12.10;1.00
13245;DHT22;6689;53.400;12.486;2023-10-13T00:43:45;12.10;1.00
13245;DHT22;6689;53.400;12.486;2023-10-13T00:46:31;12.10;1.00
13245;DHT22;6689;53.400;12.486;2023-10-13T00:49:02;12.20;1.00
13245;DHT22;6689;53.400;12.486;2023-10-13T00:51:31;12.20;1.00
13245;DHT22;6689;53.400;12.486;2023-10-13T00:54:03;12.10;1.00
13245;DHT22;6689;53.400;12.486;2023-10-13T00:56:34;12.20;1.00
13245;DHT22;6689;53.400;12.486;2023-10-13T00:59:06;12.20;1.00
13245;DHT22;6689;53.400;12.486;2023-10-13T01:01:36;12.20;1.00
13245;DHT22;6689;53.400;12.486;2023-10-13T01:04:05;12.20;1.00
13245;DHT22;6689;53.400;12.486;2023-10-13T01:06:34;12.20;1.00
13245;DHT22;6689;53.400;12.486;2023-10-13T01:09:04;12.20;1.00
13245;DHT22;6689;53.400;12.486;2023-10-13T01:11:40;12.30;1.00
13245;DHT22;6689;53.400;12.486;2023-10-13T01:14:08;12.30;1.00
13245;DHT22;6689;53.400;12.486;2023-10-13T01:16:37;12.30;1.00
13245;DHT22;6689;53.400;12.486;2023-10-13T01:19:11;12.30;1.00
13245;DHT22;6689;53.400;12.486;2023-10-13T01:21:40;12.30;1.00
13245;DHT22;6689;53.400;12.486;2023-10-13T01:24:08;12.30;1.00
13245;DHT22;6689;53.400;12.486;2023-10-13T01:26:38;12.30;1.00
13245;DHT22;6689;53.400;12.486;2023-10-13T01:29:06;12.30;1.00
13245;DHT22;6689;53.400;12.486;2023-10-13T01:31:41;12.30;1.00
13245;DHT22;6689;53.400;12.486;2023-10-13T01:34:15;12.30;1.00
13245;DHT22;6689;53.400;12.486;2023-10-13T01:36:48;12.40;1.00
13245;DHT22;6689;53.400;12.486;2023-10-13T01:39:18;12.30;1.00
13245;DHT22;6689;53.400;12.486;2023-10-13T01:41:46;12.40;1.00
13245;DHT22;6689;53.400;12.486;2023-10-13T01:44:19;12.30;1.00
13245;DHT22;6689;53.400;12.486;2023-10-13T01:46:47;12.30;1.00
13245;DHT22;6689;53.400;12.486;2023-10-13T01:49:14;12.40;1.00
13245;DHT22;6689;53.400;12.486;2023-10-13T01:51:42;12.40;1.00
13245;DHT22;6689;53.400;12.486;2023-10-13T01:54:09;12.40;1.00
13245;DHT22;6689;53.400;12.486;2023-10-13T01:56:40;12.40;1.00
13245;DHT22;6689;53.400;12.486;2023-10-13T01:59:10;12.40;1.00
13245;DHT22;6689;53.400;12.486;2023-10-13T02:01:38;12.40;1.00
13245;DHT22;6689;53.400;12.486;2023-10-13T02:04:05;12.50;1.00
13245;DHT22;6689;53.400;12.486;2023-10-13T02:06:35;12.50;1.00
13245;DHT22;6689;53.400;12.486;2023-10-13T02:09:04;12.50;1.00
13245;DHT22;6689;53.400;12.486;2023-10-13T02:11:41;12.60;1.00
13245;DHT22;6689;53.400;12.486;2023-10-13T02:14:07;12.60;1.00
13245;DHT22;6689;53.400;12.486;2023-10-13T02:16:37;12.50;1.00
13245;DHT22;6689;53.400;12.486;2023-10-13T02:19:03;12.50;8.10
13245;DHT22;6689;53.400;12.486;2023-10-13T02:21:31;12.60;2.70
13245;DHT22;6689;53.400;12.486;2023-10-13T02:23:58;12.60;20.30
13245;DHT22;6689;53.400;12.486;2023-10-13T02:26:31;12.60;36.30
13245;DHT22;6689;53.400;12.486;2023-10-13T02:29:00;12.60;33.30
13245;DHT22;6689;53.400;12.486;2023-10-13T02:31:32;12.70;34.20
13245;DHT22;6689;53.400;12.486;2023-10-13T02:33:59;12.70;56.20
13245;DHT22;6689;53.400;12.486;2023-10-13T02:36:31;12.70;41.20
13245;DHT22;6689;53.400;12.486;2023-10-13T02:39:03;12.70;38.40
13245;DHT22;6689;53.400;12.486;2023-10-13T02:41:33;12.70;40.40
13245;DHT22;6689;53.400;12.486;2023-10-13T02:44:05;12.80;45.00
13245;DHT22;6689;53.400;12.486;2023-10-13T02:46:34;12.80;50.30
13245;DHT22;6689;53.400;12.486;2023-10-13T02:49:02;12.80;54.10
13245;DHT22;6689;53.400;12.486;2023-10-13T02:51:36;12.80;54.30
13245;DHT22;6689;53.400;12.486;2023-10-13T02:54:04;12.90;53.40
13245;DHT22;6689;53.400;12.486;2023-10-13T02:56:36;12.90;59.60
13245;DHT22;6689;53.400;12.486;2023-10-13T02:59:04;12.90;88.70
13245;DHT22;6689;53.400;12.486;2023-10-13T03:01:32;12.90;87.70
13245;DHT22;6689;53.400;12.486;2023-10-13T03:04:01;12.90;99.90
13245;DHT22;6689;53.400;12.486;2023-10-13T03:06:29;12.90;99.90
13245;DHT22;6689;53.400;12.486;2023-10-13T03:08:59;12.90;99.90
13245;DHT22;6689;53.400;12.486;2023-10-13T03:11:40;12.90;99.90
13245;DHT22;6689;53.400;12.486;2023-10-13T03:14:10;13.00;99.90
13245;DHT22;6689;53.400;12.486;2023-10-13T03:16:50;13.00;99.90
13245;DHT22;6689;53.400;12.486;2023-10-13T03:19:18;13.00;99.90
13245;DHT22;6689;53.400;12.486;2023-10-13T03:21:46;12.90;99.90
13245;DHT22;6689;53.400;12.486;2023-10-13T03:24:21;13.00;99.90
13245;DHT22;6689;53.400;12.486;2023-10-13T03:26:59;13.00;99.90
13245;DHT22;6689;53.400;12.486;2023-10-13T03:29:36;13.00;99.90
13245;DHT22;6689;53.400;12.486;2023-10-13T03:32:05;13.00;99.90
13245;DHT22;6689;53.400;12.486;2023-10-13T03:34:37;13.00;99.90
13245;DHT22;6689;53.400;12.486;2023-10-13T03:37:07;13.00;99.90
13245;DHT22;6689;53.400;12.486;2023-10-13T03:39:43;13.00;99.90
13245;DHT22;6689;53.400;12.486;2023-10-13T03:42:11;13.00;99.90
13245;DHT22;6689;53.400;12.486;2023-10-13T03:44:47;13.10;99.90
13245;DHT22;6689;53.400;12.486;2023-10-13T03:47:14;13.10;99.90
13245;DHT22;6689;53.400;12.486;2023-10-13T03:49:53;13.10;99.90
13245;DHT22;6689;53.400;12.486;2023-10-13T03:52:40;13.10;99.90
13245;DHT22;6689;53.400;12.486;2023-10-13T03:55:10;13.10;99.90
13245;DHT22;6689;53.400;12.486;2023-10-13T03:57:43;13.10;99.90
13245;DHT22;6689;53.400;12.486;2023-10-13T04:00:28;13.10;99.90
13245;DHT22;6689;53.400;12.486;2023-10-13T04:03:02;13.20;99.90
13245;DHT22;6689;53.400;12.486;2023-10-13T04:05:42;13.20;99.90
13245;DHT22;6689;53.400;12.486;2023-10-13T04:08:11;13.20;99.90
13245;DHT22;6689;53.400;12.486;2023-10-13T04:10:56;13.20;99.90
13245;DHT22;6689;53.400;12.486;2023-10-13T04:13:41;13.20;99.90
13245;DHT22;6689;53.400;12.486;2023-10-13T04:16:32;13.20;99.90
13245;DHT22;6689;53.400;12.486;2023-10-13T04:19:04;13.20;99.90
13245;DHT22;6689;53.400;12.486;2023-10-13T04:21:45;13.20;99.90
13245;DHT22;6689;53.400;12.486;2023-10-13T04:24:24;13.30;99.90
13245;DHT22;6689;53.400;12.486;2023-10-13T04:27:05;13.30;99.90
13245;DHT22;6689;53.400;12.486;2023-10-13T04:29:50;13.30;99.90
13245;DHT22;6689;53.400;12.486;2023-10-13T04:32:37;13.30;99.90
13245;DHT22;6689;53.400;12.486;2023-10-13T04:35:13;13.30;99.90
13245;DHT22;6689;53.400;12.486;2023-10-13T04:37:50;13.30;99.90
13245;DHT22;6689;53.400;12.486;2023-10-13T04:40:22;13.30;99.90
13245;DHT22;6689;53.400;12.486;2023-10-13T04:42:52;13.30;99.90
13245;DHT22;6689;53.400;12.486;2023-10-13T04:45:24;13.30;99.90
13245;DHT22;6689;53.400;12.486;2023-10-13T04:48:17;13.40;99.90
13245;DHT22;6689;53.400;12.486;2023-10-13T04:51:02;13.40;99.90
13245;DHT22;6689;53.400;12.486;2023-10-13T04:54:10;13.40;99.90
13245;DHT22;6689;53.400;12.486;2023-10-13T04:56:39;13.40;99.90
13245;DHT22;6689;53.400;12.486;2023-10-13T04:59:24;13.40;99.90
13245;DHT22;6689;53.400;12.486;2023-10-13T05:02:24;13.40;99.90
13245;DHT22;6689;53.400;12.486;2023-10-13T05:05:23;13.50;99.90
13245;DHT22;6689;53.400;12.486;2023-10-13T05:08:04;13.50;99.90
13245;DHT22;6689;53.400;12.486;2023-10-13T05:10:49;13.50;99.90
13245;DHT22;6689;53.400;12.486;2023-10-13T05:13:33;13.50;99.90
13245;DHT22;6689;53.400;12.486;2023-10-13T05:16:14;13.60;99.90
13245;DHT22;6689;53.400;12.486;2023-10-13T05:18:59;13.60;99.90
13245;DHT22;6689;53.400;12.486;2023-10-13T05:21:45;13.60;99.90
13245;DHT22;6689;53.400;12.486;2023-10-13T05:24:26;13.60;99.90
13245;DHT22;6689;53.400;12.486;2023-10-13T05:27:11;13.70;99.90
13245;DHT22;6689;53.400;12.486;2023-10-13T05:29:55;13.70;99.90
13245;DHT22;6689;53.400;12.486;2023-10-13T05:32:40;13.70;99.90
13245;DHT22;6689;53.400;12.486;2023-10-13T05:35:25;13.70;99.90
13245;DHT22;6689;53.400;12.486;2023-10-13T05:38:11;13.80;99.90
13245;DHT22;6689;53.400;12.486;2023-10-13T05:40:59;13.80;99.90
13245;DHT22;6689;53.400;12.486;2023-10-13T05:43:45;13.80;99.90
13245;DHT22;6689;53.400;12.486;2023-10-13T05:46:30;13.80;99.90
13245;DHT22;6689;53.400;12.486;2023-10-13T05:49:27;13.90;99.90
13245;DHT22;6689;53.400;12.486;2023-10-13T05:52:15;13.90;99.90
13245;DHT22;6689;53.400;12.486;2023-10-13T05:55:01;13.90;1.00
13245;DHT22;6689;53.400;12.486;2023-10-13T05:57:46;13.90;1.00
13245;DHT22;6689;53.400;12.486;2023-10-13T06:00:31;14.00;1.00
13245;DHT22;6689;53.400;12.486;2023-10-13T06:03:21;14.00;1.00
13245;DHT22;6689;53.400;12.486;2023-10-13T06:06:07;14.00;1.00
13245;DHT22;6689;53.400;12.486;2023-10-13T06:08:51;14.10;1.00
13245;DHT22;6689;53.400;12.486;2023-10-13T06:11:37;14.10;1.00
13245;DHT22;6689;53.400;12.486;2023-10-13T06:14:22;14.10;1.00
13245;DHT22;6689;53.400;12.486;2023-10-13T06:17:07;14.10;1.00
13245;DHT22;6689;53.400;12.486;2023-10-13T06:20:00;14.10;1.00
13245;DHT22;6689;53.400;12.486;2023-10-13T06:22:47;14.20;1.00
13245;DHT22;6689;53.400;12.486;2023-10-13T06:25:32;14.20;1.00
13245;DHT22;6689;53.400;12.486;2023-10-13T06:28:18;14.20;1.00
13245;DHT22;6689;53.400;12.486;2023-10-13T06:31:04;14.20;1.00
13245;DHT22;6689;53.400;12.486;2023-10-13T06:33:33;14.30;1.00
13245;DHT22;6689;53.400;12.486;2023-10-13T06:36:03;14.30;1.00
13245;DHT22;6689;53.400;12.486;2023-10-13T06:38:35;14.30;1.00
13245;DHT22;6689;53.400;12.486;2023-10-13T06:41:03;14.40;1.00
13245;DHT22;6689;53.400;12.486;2023-10-13T06:43:32;14.40;1.00
13245;DHT22;6689;53.400;12.486;2023-10-13T06:46:05;14.40;1.00
13245;DHT22;6689;53.400;12.486;2023-10-13T06:48:33;14.50;1.00
13245;DHT22;6689;53.400;12.486;2023-10-13T06:51:01;14.50;1.00
13245;DHT22;6689;53.400;12.486;2023-10-13T06:53:44;14.50;1.00
13245;DHT22;6689;53.400;12.486;2023-10-13T06:56:14;14.60;1.00
13245;DHT22;6689;53.400;12.486;2023-10-13T06:58:45;14.60;1.00
13245;DHT22;6689;53.400;12.486;2023-10-13T07:01:13;14.60;1.00
13245;DHT22;6689;53.400;12.486;2023-10-13T07:03:48;14.60;1.00
13245;DHT22;6689;53.400;12.486;2023-10-13T07:06:19;14.70;1.00
13245;DHT22;6689;53.400;12.486;2023-10-13T07:08:46;14.70;1.00
13245;DHT22;6689;53.400;12.486;2023-10-13T07:11:18;14.70;1.00
13245;DHT22;6689;53.400;12.486;2023-10-13T07:14:00;14.80;1.00
13245;DHT22;6689;53.400;12.486;2023-10-13T07:16:54;14.80;1.00
13245;DHT22;6689;53.400;12.486;2023-10-13T07:19:24;14.80;1.00
13245;DHT22;6689;53.400;12.486;2023-10-13T07:21:54;14.90;1.00
13245;DHT22;6689;53.400;12.486;2023-10-13T07:24:25;14.90;1.00
13245;DHT22;6689;53.400;12.486;2023-10-13T07:26:57;14.90;1.00
13245;DHT22;6689;53.400;12.486;2023-10-13T07:29:32;15.00;1.00
13245;DHT22;6689;53.400;12.486;2023-10-13T07:32:01;15.10;1.00
13245;DHT22;6689;53.400;12.486;2023-10-13T07:34:29;15.10;1.00
13245;DHT22;6689;53.400;12.486;2023-10-13T07:36:59;15.10;1.00
13245;DHT22;6689;53.400;12.486;2023-10-13T07:39:28;15.20;1.00
13245;DHT22;6689;53.400;12.486;2023-10-13T07:42:00;15.20;1.00
13245;DHT22;6689;53.400;12.486;2023-10-13T07:44:33;15.30;1.00
13245;DHT22;6689;53.400;12.486;2023-10-13T07:47:11;15.30;1.00
13245;DHT22;6689;53.400;12.486;2023-10-13T07:49:40;15.30;1.00
13245;DHT22;6689;53.400;12.486;2023-10-13T07:52:09;15.40;1.00
13245;DHT22;6689;53.400;12.486;2023-10-13T07:54:57;15.30;1.00
13245;DHT22;6689;53.400;12.486;2023-10-13T07:57:37;15.30;1.00
13245;DHT22;6689;53.400;12.486;2023-10-13T08:00:21;15.40;1.00
13245;DHT22;6689;53.400;12.486;2023-10-13T08:03:12;15.40;1.00
13245;DHT22;6689;53.400;12.486;2023-10-13T08:05:57;15.40;1.00
13245;DHT22;6689;53.400;12.486;2023-10-13T08:08:31;15.40;1.00
13245;DHT22;6689;53.400;12.486;2023-10-13T08:11:04;15.50;1.00
13245;DHT22;6689;53.400;12.486;2023-10-13T08:13:38;15.50;1.00
13245;DHT22;6689;53.400;12.486;2023-10-13T08:16:13;15.50;1.00
13245;DHT22;6689;53.400;12.486;2023-10-13T08:18:47;15.60;1.00
13245;DHT22;6689;53.400;12.486;2023-10-13T08:21:18;15.60;1.00
13245;DHT22;6689;53.400;12.486;2023-10-13T08:23:49;15.60;1.00
13245;DHT22;6689;53.400;12.486;2023-10-13T08:26:32;15.60;1.00
13245;DHT22;6689;53.400;12.486;2023-10-13T08:29:13;15.70;1.00
13245;DHT22;6689;53.400;12.486;2023-10-13T08:32:01;15.70;1.00
13245;DHT22;6689;53.400;12.486;2023-10-13T08:34:47;15.70;1.00
13245;DHT22;6689;53.400;12.486;2023-10-13T08:37:35;15.70;1.00
13245;DHT22;6689;53.400;12.486;2023-10-13T08:40:13;15.80;1.00
13245;DHT22;6689;53.400;12.486;2023-10-13T08:43:12;15.80;1.00
13245;DHT22;6689;53.400;12.486;2023-10-13T08:45:39;15.80;1.00
13245;DHT22;6689;53.400;12.486;2023-10-13T08:48:26;15.80;1.00
13245;DHT22;6689;53.400;12.486;2023-10-13T08:51:00;15.90;1.00
13245;DHT22;6689;53.400;12.486;2023-10-13T08:54:00;15.80;1.00
13245;DHT22;6689;53.400;12.486;2023-10-13T08:56:34;15.80;1.00
13245;DHT22;6689;53.400;12.486;2023-10-13T08:59:12;15.80;1.00
13245;DHT22;6689;53.400;12.486;2023-10-13T09:01:47;15.90;1.00
13245;DHT22;6689;53.400;12.486;2023-10-13T09:04:26;15.90;1.00
13245;DHT22;6689;53.400;12.486;2023-10-13T09:07:00;15.90;1.00
13245;DHT22;6689;53.400;12.486;2023-10-13T09:09:44;16.00;1.00
13245;DHT22;6689;53.400;12.486;2023-10-13T09:12:27;16.00;1.00
13245;DHT22;6689;53.400;12.486;2023-10-13T09:15:09;16.00;1.00
13245;DHT22;6689;53.400;12.486;2023-10-13T09:17:53;16.10;1.00
13245;DHT22;6689;53.400;12.486;2023-10-13T09:20:40;16.10;1.00
13245;DHT22;6689;53.400;12.486;2023-10-13T09:23:13;16.20;1.00
13245;DHT22;6689;53.400;12.486;2023-10-13T09:25:50;16.20;1.00
13245;DHT22;6689;53.400;12.486;2023-10-13T09:28:24;16.30;1.00
13245;DHT22;6689;53.400;12.486;2023-10-13T09:30:53;16.30;1.00
13245;DHT22;6689;53.400;12.486;2023-10-13T09:33:20;16.40;1.00
13245;DHT22;6689;53.400;12.486;2023-10-13T09:35:55;16.40;1.00
13245;DHT22;6689;53.400;12.486;2023-10-13T09:38:25;16.40;1.00
13245;DHT22;6689;53.400;12.486;2023-10-13T09:40:53;16.40;1.00
13245;DHT22;6689;53.400;12.486;2023-10-13T09:43:24;16.50;1.00
13245;DHT22;6689;53.400;12.486;2023-10-13T09:45:58;16.60;1.00
13245;DHT22;6689;53.400;12.486;2023-10-13T09:48:34;16.60;1.00
13245;DHT22;6689;53.400;12.486;2023-10-13T09:51:12;16.60;1.00
13245;DHT22;6689;53.400;12.486;2023-10-13T09:53:43;16.50;1.00
13245;DHT22;6689;53.400;12.486;2023-10-13T09:56:20;16.60;1.00
13245;DHT22;6689;53.400;12.486;2023-10-13T09:58:53;16.60;1.00
13245;DHT22;6689;53.400;12.486;2023-10-13T10:01:26;16.60;1.00
13245;DHT22;6689;53.400;12.486;2023-10-13T10:04:07;16.60;1.00
13245;DHT22;6689;53.400;12.486;2023-10-13T10:06:38;16.50;1.00
13245;DHT22;6689;53.400;12.486;2023-10-13T10:09:11;16.60;1.00
13245;DHT22;6689;53.400;12.486;2023-10-13T10:12:09;16.60;1.00
13245;DHT22;6689;53.400;12.486;2023-10-13T10:15:09;16.60;1.00
13245;DHT22;6689;53.400;12.486;2023-10-13T10:17:46;16.50;1.00
13245;DHT22;6689;53.400;12.486;2023-10-13T10:20:13;16.50;1.00
13245;DHT22;6689;53.400;12.486;2023-10-13T10:23:00;16.50;1.00
13245;DHT22;6689;53.400;12.486;2023-10-13T10:25:30;16.50;1.00
13245;DHT22;6689;53.400;12.486;2023-10-13T10:28:02;16.50;1.00
13245;DHT22;6689;53.400;12.486;2023-10-13T10:30:32;16.50;1.00
13245;DHT22;6689;53.400;12.486;2023-10-13T10:33:01;16.50;1.00
13245;DHT22;6689;53.400;12.486;2023-10-13T10:35:33;16.50;1.00
13245;DHT22;6689;53.400;12.486;2023-10-13T10:38:14;16.40;1.00
13245;DHT22;6689;53.400;12.486;2023-10-13T10:40:51;16.40;1.00
13245;DHT22;6689;53.400;12.486;2023-10-13T10:43:24;16.50;1.00
13245;DHT22;6689;53.400;12.486;2023-10-13T10:45:56;16.50;1.00
13245;DHT22;6689;53.400;12.486;2023-10-13T10:48:26;16.50;1.00
13245;DHT22;6689;53.400;12.486;2023-10-13T10:51:00;16.50;1.00
13245;DHT22;6689;53.400;12.486;2023-10-13T10:53:36;16.50;6.70
13245;DHT22;6689;53.400;12.486;2023-10-13T10:56:10;16.60;18.80
13245;DHT22;6689;53.400;12.486;2023-10-13T10:58:53;16.80;37.00
13245;DHT22;6689;53.400;12.486;2023-10-13T11:01:25;16.90;42.70
13245;DHT22;6689;53.400;12.486;2023-10-13T11:04:00;17.00;44.90
13245;DHT22;6689;53.400;12.486;2023-10-13T11:06:34;17.10;46.20
13245;DHT22;6689;53.400;12.486;2023-10-13T11:09:09;17.10;20.00
13245;DHT22;6689;53.400;12.486;2023-10-13T11:11:47;17.20;8.80
13245;DHT22;6689;53.400;12.486;2023-10-13T11:14:22;17.20;1.00
13245;DHT22;6689;53.400;12.486;2023-10-13T11:16:53;17.30;9.40
13245;DHT22;6689;53.400;12.486;2023-10-13T11:19:22;17.40;1.00
13245;DHT22;6689;53.400;12.486;2023-10-13T11:22:10;17.30;1.00
13245;DHT22;6689;53.400;12.486;2023-10-13T11:24:41;17.40;1.00
13245;DHT22;6689;53.400;12.486;2023-10-13T11:27:14;17.50;1.00
13245;DHT22;6689;53.400;12.486;2023-10-13T11:29:48;17.50;1.00
13245;DHT22;6689;53.400;12.486;2023-10-13T11:32:18;17.60;1.00
13245;DHT22;6689;53.400;12.486;2023-10-13T11:34:49;17.60;1.00
13245;DHT22;6689;53.400;12.486;2023-10-13T11:37:20;17.70;1.00
13245;DHT22;6689;53.400;12.486;2023-10-13T11:40:11;17.70;1.00
13245;DHT22;6689;53.400;12.486;2023-10-13T11:42:39;17.70;1.00
13245;DHT22;6689;53.400;12.486;2023-10-13T11:45:09;17.80;1.00
13245;DHT22;6689;53.400;12.486;2023-10-13T11:47:54;17.90;1.00
13245;DHT22;6689;53.400;12.486;2023-10-13T11:50:26;17.90;1.00
13245;DHT22;6689;53.400;12.486;2023-10-13T11:52:58;17.90;1.00
13245;DHT22;6689;53.400;12.486;2023-10-13T11:55:30;17.90;1.00
13245;DHT22;6689;53.400;12.486;2023-10-13T11:57:57;18.10;1.00
13245;DHT22;6689;53.400;12.486;2023-10-13T12:00:25;18.10;1.00
13245;DHT22;6689;53.400;12.486;2023-10-13T12:03:13;18.10;1.00
13245;DHT22;6689;53.400;12.486;2023-10-13T12:05:58;18.20;1.00
13245;DHT22;6689;53.400;12.486;2023-10-13T12:08:43;18.30;1.00
13245;DHT22;6689;53.400;12.486;2023-10-13T12:11:16;18.40;1.00
13245;DHT22;6689;53.400;12.486;2023-10-13T12:14:04;18.40;1.00
13245;DHT22;6689;53.400;12.486;2023-10-13T12:16:43;18.40;1.00
13245;DHT22;6689;53.400;12.486;2023-10-13T12:19:15;18.50;1.00
13245;DHT22;6689;53.400;12.486;2023-10-13T12:21:43;18.60;1.00
13245;DHT22;6689;53.400;12.486;2023-10-13T12:24:13;18.60;1.00
13245;DHT22;6689;53.400;12.486;2023-10-13T12:26:58;18.60;1.00
13245;DHT22;6689;53.400;12.486;2023-10-13T12:29:25;18.70;1.00
13245;DHT22;6689;53.400;12.486;2023-10-13T12:31:55;18.60;1.00
13245;DHT22;6689;53.400;12.486;2023-10-13T12:34:35;18.60;1.00
13245;DHT22;6689;53.400;12.486;2023-10-13T12:37:27;18.60;1.00
13245;DHT22;6689;53.400;12.486;2023-10-13T12:40:17;18.60;1.00
13245;DHT22;6689;53.400;12.486;2023-10-13T12:43:05;18.60;1.00
13245;DHT22;6689;53.400;12.486;2023-10-13T12:45:50;18.60;1.00
13245;DHT22;6689;53.400;12.486;2023-10-13T12:48:35;18.50;1.00
13245;DHT22;6689;53.400;12.486;2023-10-13T12:51:20;18.70;1.00
13245;DHT22;6689;53.400;12.486;2023-10-13T12:54:06;18.70;1.00
13245;DHT22;6689;53.400;12.486;2023-10-13T12:56:42;18.80;1.00
13245;DHT22;6689;53.400;12.486;2023-10-13T12:59:10;18.90;1.00
13245;DHT22;6689;53.400;12.486;2023-10-13T13:01:41;18.90;1.00
13245;DHT22;6689;53.400;12.486;2023-10-13T13:04:09;18.90;1.00
13245;DHT22;6689;53.400;12.486;2023-10-13T13:06:47;19.00;1.00
13245;DHT22;6689;53.400;12.486;2023-10-13T13:09:14;19.00;1.00
13245;DHT22;6689;53.400;12.486;2023-10-13T13:11:41;19.10;1.00
13245;DHT22;6689;53.400;12.486;2023-10-13T13:14:11;19.20;1.00
13245;DHT22;6689;53.400;12.486;2023-10-13T13:16:38;19.30;1.00
13245;DHT22;6689;53.400;12.486;2023-10-13T13:19:05;19.40;1.00
13245;DHT22;6689;53.400;12.486;2023-10-13T13:21:39;19.40;1.00
13245;DHT22;6689;53.400;12.486;2023-10-13T13:24:09;19.40;1.00
13245;DHT22;6689;53.400;12.486;2023-10-13T13:26:39;19.50;1.00
13245;DHT22;6689;53.400;12.486;2023-10-13T13:29:07;19.40;1.00
13245;DHT22;6689;53.400;12.486;2023-10-13T13:31:38;19.40;1.00
13245;DHT22;6689;53.400;12.486;2023-10-13T13:34:09;19.40;99.90
13245;DHT22;6689;53.400;12.486;2023-10-13T13:36:38;19.50;1.00
13245;DHT22;6689;53.400;12.486;2023-10-13T13:39:10;19.40;1.40
13245;DHT22;6689;53.400;12.486;2023-10-13T13:41:38;19.50;1.00
13245;DHT22;6689;53.400;12.486;2023-10-13T13:44:05;19.40;99.90
13245;DHT22;6689;53.400;12.486;2023-10-13T13:46:42;19.40;99.90
13245;DHT22;6689;53.400;12.486;2023-10-13T13:49:09;19.50;99.90
13245;DHT22;6689;53.400;12.486;2023-10-13T13:51:53;19.40;99.90
13245;DHT22;6689;53.400;12.486;2023-10-13T13:54:20;19.50;1.00
13245;DHT22;6689;53.400;12.486;2023-10-13T13:56:48;19.40;99.90
13245;DHT22;6689;53.400;12.486;2023-10-13T13:59:15;19.40;1.00
13245;DHT22;6689;53.400;12.486;2023-10-13T14:01:47;19.50;99.90
13245;DHT22;6689;53.400;12.486;2023-10-13T14:04:17;19.50;99.90
13245;DHT22;6689;53.400;12.486;2023-10-13T14:06:46;19.50;99.90
13245;DHT22;6689;53.400;12.486;2023-10-13T14:09:16;19.60;99.90
13245;DHT22;6689;53.400;12.486;2023-10-13T14:11:58;19.60;99.90
13245;DHT22;6689;53.400;12.486;2023-10-13T14:14:43;19.60;99.90
13245;DHT22;6689;53.400;12.486;2023-10-13T14:17:17;19.60;99.90
13245;DHT22;6689;53.400;12.486;2023-10-13T14:19:44;19.60;99.90
13245;DHT22;6689;53.400;12.486;2023-10-13T14:22:11;19.60;99.90
13245;DHT22;6689;53.400;12.486;2023-10-13T14:24:39;19.60;99.90
13245;DHT22;6689;53.400;12.486;2023-10-13T14:27:13;19.50;99.90
13245;DHT22;6689;53.400;12.486;2023-10-13T14:29:43;19.50;99.90
13245;DHT22;6689;53.400;12.486;2023-10-13T14:32:12;19.50;99.90
13245;DHT22;6689;53.400;12.486;2023-10-13T14:34:46;19.60;99.90
13245;DHT22;6689;53.400;12.486;2023-10-13T14:37:19;19.60;99.90
13245;DHT22;6689;53.400;12.486;2023-10-13T14:39:52;19.60;99.90
13245;DHT22;6689;53.400;12.486;2023-10-13T14:42:24;19.60;99.90
13245;DHT22;6689;53.400;12.486;2023-10-13T14:44:51;19.60;99.90
13245;DHT22;6689;53.400;12.486;2023-10-13T14:47:22;19.60;99.90
13245;DHT22;6689;53.400;12.486;2023-10-13T14:49:52;19.70;99.90
13245;DHT22;6689;53.400;12.486;2023-10-13T14:52:21;19.70;99.90
13245;DHT22;6689;53.400;12.486;2023-10-13T14:54:50;19.70;99.90
13245;DHT22;6689;53.400;12.486;2023-10-13T14:57:21;19.70;99.90
13245;DHT22;6689;53.400;12.486;2023-10-13T14:59:51;19.70;99.90
13245;DHT22;6689;53.400;12.486;2023-10-13T15:02:19;19.70;99.90
13245;DHT22;6689;53.400;12.486;2023-10-13T15:04:47;19.70;99.90
13245;DHT22;6689;53.400;12.486;2023-10-13T15:07:17;19.70;99.90
13245;DHT22;6689;53.400;12.486;2023-10-13T15:09:45;19.70;99.90
13245;DHT22;6689;53.400;12.486;2023-10-13T15:12:13;19.70;99.90
13245;DHT22;6689;53.400;12.486;2023-10-13T15:14:40;19.80;99.90
13245;DHT22;6689;53.400;12.486;2023-10-13T15:17:09;19.70;99.90
13245;DHT22;6689;53.400;12.486;2023-10-13T15:19:37;19.70;99.90
13245;DHT22;6689;53.400;12.486;2023-10-13T15:22:12;19.70;99.90
13245;DHT22;6689;53.400;12.486;2023-10-13T15:24:48;19.70;99.90
13245;DHT22;6689;53.400;12.486;2023-10-13T15:27:34;19.70;99.90
13245;DHT22;6689;53.400;12.486;2023-10-13T15:30:08;19.70;99.90
13245;DHT22;6689;53.400;12.486;2023-10-13T15:32:46;19.70;99.90
13245;DHT22;6689;53.400;12.486;2023-10-13T15:35:14;19.70;99.90
13245;DHT22;6689;53.400;12.486;2023-10-13T15:37:42;19.70;99.90
13245;DHT22;6689;53.400;12.486;2023-10-13T15:40:14;19.70;99.90
13245;DHT22;6689;53.400;12.486;2023-10-13T15:42:42;19.70;99.90
13245;DHT22;6689;53.400;12.486;2023-10-13T15:45:13;19.70;99.90
13245;DHT22;6689;53.400;12.486;2023-10-13T15:47:48;19.70;99.90
13245;DHT22;6689;53.400;12.486;2023-10-13T15:50:16;19.70;99.90
13245;DHT22;6689;53.400;12.486;2023-10-13T15:52:46;19.70;99.90
13245;DHT22;6689;53.400;12.486;2023-10-13T15:55:16;19.70;99.90
13245;DHT22;6689;53.400;12.486;2023-10-13T15:57:44;19.70;99.90
13245;DHT22;6689;53.400;12.486;2023-10-13T16:00:18;19.70;99.90
13245;DHT22;6689;53.400;12.486;2023-10-13T16:02:52;19.70;99.90
13245;DHT22;6689;53.400;12.486;2023-10-13T16:05:20;19.70;99.90
13245;DHT22;6689;53.400;12.486;2023-10-13T16:07:50;19.70;99.90
13245;DHT22;6689;53.400;12.486;2023-10-13T16:10:21;19.70;99.90
13245;DHT22;6689;53.400;12.486;2023-10-13T16:12:48;19.70;99.90
13245;DHT22;6689;53.400;12.486;2023-10-13T16:15:17;19.70;99.90
13245;DHT22;6689;53.400;12.486;2023-10-13T16:17:47;19.60;99.90
13245;DHT22;6689;53.400;12.486;2023-10-13T16:20:15;19.60;99.90
13245;DHT22;6689;53.400;12.486;2023-10-13T16:22:48;19.60;99.90
13245;DHT22;6689;53.400;12.486;2023-10-13T16:25:16;19.60;99.90
13245;DHT22;6689;53.400;12.486;2023-10-13T16:27:45;19.60;99.90